Nearby METAR Reports

 

KMTN - Baltimore/Martin, Maryland, USA
Distance from station: SSE 8mi, 13km
Updated: Sun, 19-Apr-2015 8:45am EDT
Overcast
Overcast
 Wind from E
Wind: E 8 mph , 13 km/h, Gust: 17 mph , 28 km/h
Temperature: 61°F , 16°C
Dew Point: 37°F , 3°C
Humidity: 42%
Barometer: 30.20 inHg , 1022.7 hPa
Clouds: Overcast
Visibility: 10 miles , 16 km
Cloud details: Overcast 20000 ft
2015/04/19 12:45 KMTN 191245Z 08007G15KT 10SM OVC200 16/03 A3020
KDMH - Baltimore/Dwntwn, Maryland, USA
Distance from station: SW 12mi, 19km
Updated: Sun, 19-Apr-2015 7:54am EDT

 
Temperature: 61°F , 16°C
Dew Point: 28°F , -2°C
Humidity: 29%
Barometer: 30.18 inHg , 1022 hPa
2015/04/19 11:54 KDMH 191154Z AUTO 16/M02 A3018 RMK AO1 SLP220 T01561017 10200 20150 53031
 
KBWI - Balto/Wash Intl, Maryland, USA
Distance from station: SSW 20mi, 33km
Updated: Sun, 19-Apr-2015 7:54am EDT
Overcast
Overcast
 Wind from ENE
Wind: ENE 14 mph , 22 km/h
Temperature: 59°F , 15°C
Dew Point: 34°F , 1°C
Humidity: 39%
Barometer: 30.16 inHg , 1021.3 hPa
Clouds: Overcast
Visibility: 10 miles , 16 km
Cloud details: Few Clouds 20000 ft
Overcast 25000 ft
2015/04/19 11:54 KBWI 191154Z 07012KT 10SM FEW200 OVC250 15/01 A3016 RMK AO2 SLP213 T01500011 10189 20139 53026
KDMW - Carroll Cnty, Maryland, USA
Distance from station: WNW 30mi, 48km
Updated: Sun, 19-Apr-2015 8:30am EDT
Clear
Clear
 Wind from E
Wind: E 10 mph , 17 km/h, Gust: 17 mph , 28 km/h
Temperature: 57°F , 14°C
Dew Point: 21°F , -6°C
Humidity: 25%
Barometer: 30.17 inHg , 1021.7 hPa
Clouds: Clear
Visibility: 10 miles , 16 km
2015/04/19 12:30 KDMW 191230Z AUTO 09009G15KT 10SM CLR 14/M06 A3017 RMK AO2
 
KNAK - Annapolis/Naval, Maryland, USA
Distance from station: S 30mi, 48km
Updated: Sun, 19-Apr-2015 7:54am EDT
Clear
Clear
 Wind from E
Wind: E 7 mph , 11 km/h
Temperature: 59°F , 15°C
Dew Point: 36°F , 2°C
Humidity: 42%
Barometer: 30.16 inHg , 1021.3 hPa
Clouds: Clear
Visibility: 10 miles , 16 km
2015/04/19 11:54 KNAK 191154Z AUTO 08006KT 10SM CLR 15/02 A3016 RMK AO2 SLP215 T01500017 10183 20150 53028
KW29 - Stevensville, Maryland, USA
Distance from station: SSE 31mi, 50km
Updated: Sun, 19-Apr-2015 8:29am EDT

 Wind from E
Wind: E 10 mph , 17 km/h, Gust: 17 mph , 28 km/h
Temperature: 59°F , 15°C
Dew Point: 36°F , 2°C
Humidity: 42%
Barometer: 30.17 inHg , 1021.7 hPa
Visibility: 10 miles , 16 km
2015/04/19 12:29 KW29 191229Z AUTO 09009G15KT 10SM 15/02 A3017 RMK AO1
 
KCGS - College Park, Maryland, USA
Distance from station: SW 38mi, 61km
Updated: Sun, 19-Apr-2015 8:25am EDT
Clear
Clear
 Wind from ENE
Wind: ENE 7 mph , 11 km/h
Temperature: 61°F , 16°C
Dew Point: 32°F , 0°C
Humidity: 34%
Barometer: 30.16 inHg , 1021.3 hPa
Clouds: Clear
Visibility: 10 miles , 16 km
2015/04/19 12:25 KCGS 191225Z AUTO 07006KT 10SM CLR 16/00 A3016 RMK AO1
KGAI - Gaithersburg, Maryland, USA
Distance from station: WSW 40mi, 65km
Updated: Sun, 19-Apr-2015 8:35am EDT
Clear
Clear
 Wind from E
Wind: E 9 mph , 15 km/h
Temperature: 59°F , 15°C
Dew Point: 30°F , -1°C
Humidity: 34%
Barometer: 30.19 inHg , 1022.4 hPa
Clouds: Clear
Visibility: 10 miles , 16 km
2015/04/19 12:35 KGAI 191235Z AUTO 09008KT 10SM CLR 15/M01 A3019 RMK AO1
 
KTHV - York, Pennsylvania, USA
Distance from station: NNW 40mi, 65km
Updated: Sun, 19-Apr-2015 7:53am EDT
Clear
Clear
 Wind from E
Wind: E 3 mph , 6 km/h
Temperature: 52°F , 11°C
Dew Point: 36°F , 2°C
Humidity: 54%
Barometer: 30.18 inHg , 1022 hPa
Clouds: Clear
Visibility: 10 miles , 16 km
2015/04/19 11:53 KTHV 191153Z AUTO 08003KT 10SM CLR 11/02 A3018 RMK AO2 SLP221 T01110022 10150 20050 51020
KFDK - Frederick, Maryland, USA
Distance from station: W 47mi, 75km
Updated: Sun, 19-Apr-2015 7:45am EDT
Clear
Clear
 Wind from NNE
Wind: NNE 6 mph , 9 km/h
Temperature: 54°F , 12°C
Dew Point: 34°F , 1°C
Humidity: 47%
Barometer: 30.19 inHg , 1022.4 hPa
Clouds: Clear
Visibility: 10 miles , 16 km
2015/04/19 11:45 KFDK 191145Z 03005KT 10SM SKC 12/01 A3019
 
KESN - Easton/Newnam, Maryland, USA
Distance from station: SSE 48mi, 78km
Updated: Sun, 19-Apr-2015 5:53am EDT
NOT Current
Clear
Clear
 Wind from E
Wind: E 8 mph , 13 km/h
Temperature: 61°F , 16°C
Dew Point: 45°F , 7°C
Humidity: 55%
Barometer: 30.13 inHg , 1020.3 hPa
Clouds: Clear
Visibility: 10 miles , 16 km
2015/04/19 09:53 KESN 190953Z AUTO 09007KT 10SM CLR 16/07 A3013 RMK AO2 T01570070
KDCA - Washington/Natl, Washington D.c., USA
Distance from station: SW 49mi, 79km
Updated: Sun, 19-Apr-2015 7:52am EDT
Overcast
Overcast
 Wind from ENE
Wind: ENE 9 mph , 15 km/h
Temperature: 63°F , 17°C
Dew Point: 36°F , 2°C
Humidity: 37%
Barometer: 30.15 inHg , 1021 hPa
Clouds: Overcast
Visibility: 10 miles , 16 km
Cloud details: Few Clouds 10000 ft
Overcast 25000 ft
2015/04/19 11:52 KDCA 191152Z 06008KT 10SM FEW100 OVC250 17/02 A3015 RMK AO2 SLP210 T01720022 10189 20172 53025 $
 
KLNS - Lancaster, Pennsylvania, USA
Distance from station: N 49mi, 79km
Updated: Sun, 19-Apr-2015 7:53am EDT
Clear
Clear
 Wind from ENE
Wind: ENE 8 mph , 13 km/h
Temperature: 52°F , 11°C
Dew Point: 34°F , 1°C
Humidity: 50%
Barometer: 30.18 inHg , 1022 hPa
Clouds: Clear
Visibility: 10 miles , 16 km
2015/04/19 11:53 KLNS 191153Z 06007KT 10SM CLR 11/01 A3018 RMK AO2 SLP220 T01110006 10133 20094 51022
KILG - Wilmington, Delaware, USA
Distance from station: ENE 50mi, 81km
Updated: Sun, 19-Apr-2015 7:51am EDT
Clear
Clear
 Wind from E
Wind: E 16 mph , 26 km/h
Temperature: 55°F , 13°C
Dew Point: 32°F , 0°C
Humidity: 41%
Barometer: 30.20 inHg , 1022.7 hPa
Clouds: Clear
Visibility: 10 miles , 16 km
2015/04/19 11:51 KILG 191151Z AUTO 10014KT 10SM CLR 13/00 A3020 RMK AO2 SLP227 T01330000 10172 20122 53031